createdAt,value
2022-08-22T00:01:18.774Z,101698.66
2022-08-22T00:03:11.076Z,101730.75
2022-08-22T00:03:11.173Z,101700.09
2022-08-22T00:03:58.547Z,101701.50
2022-08-22T00:06:54.593Z,101700.69
2022-08-22T00:09:46.435Z,101704.63
2022-08-22T00:12:25.100Z,101703.41
2022-08-22T00:15:01.348Z,101703.00
2022-08-22T00:17:45.136Z,101706.56
2022-08-22T00:20:32.599Z,101715.34
2022-08-22T00:23:12.536Z,101715.34
2022-08-22T00:25:54.682Z,101722.09
2022-08-22T00:28:29.801Z,101713.31
2022-08-22T00:31:16.153Z,101711.72
2022-08-22T00:33:50.326Z,101714.94
2022-08-22T00:36:25.872Z,101712.81
2022-08-22T00:39:04.379Z,101716.81
2022-08-22T00:41:38.949Z,101722.81
2022-08-22T00:44:47.526Z,101717.63
2022-08-22T00:47:17.587Z,101721.19
2022-08-22T00:49:56.806Z,101726.22
2022-08-22T00:52:32.548Z,101724.22
2022-08-22T00:55:34.928Z,101724.22
2022-08-22T00:58:40.364Z,101720.66
2022-08-22T01:01:11.795Z,101718.31
2022-08-22T01:03:44.526Z,101727.94
2022-08-22T01:06:59.038Z,101722.19
2022-08-22T01:09:32.983Z,101715.34
2022-08-22T01:12:09.581Z,101715.72
2022-08-22T01:15:06.486Z,101724.88
2022-08-22T01:17:45.068Z,101722.47
2022-08-22T01:20:46.300Z,101728.38
2022-08-22T01:23:37.182Z,101731.50
2022-08-22T01:26:22.556Z,101731.41
2022-08-22T01:29:29.460Z,101732.91
2022-08-22T01:32:22.419Z,101737.66
2022-08-22T01:35:46.343Z,101732.47
2022-08-22T01:39:03.443Z,101738.75
2022-08-22T01:41:41.368Z,101741.81
2022-08-22T01:44:34.406Z,101743.34
2022-08-22T01:47:05.006Z,101744.50
2022-08-22T01:49:34.577Z,101744.00
2022-08-22T01:52:24.782Z,101746.31
2022-08-22T01:54:58.571Z,101743.06
2022-08-22T01:57:26.628Z,101745.38
2022-08-22T01:59:59.324Z,101743.31
2022-08-22T02:02:48.343Z,101738.88
2022-08-22T02:05:31.812Z,101738.81
2022-08-22T02:08:40.734Z,101730.09
2022-08-22T02:11:11.897Z,101740.09
2022-08-22T02:13:47.860Z,101740.09
2022-08-22T02:16:33.415Z,101735.72
2022-08-22T02:19:00.356Z,101734.47
2022-08-22T02:21:42.344Z,101733.56
2022-08-22T02:24:19.274Z,101723.97
2022-08-22T02:26:51.783Z,101734.22
2022-08-22T02:29:33.814Z,101728.25
2022-08-22T02:32:08.593Z,101728.59
2022-08-22T02:34:49.607Z,101730.97
2022-08-22T02:37:38.137Z,101725.34
2022-08-22T02:40:08.703Z,101724.94
2022-08-22T02:42:40.315Z,101716.94
2022-08-22T02:45:34.639Z,101718.91
2022-08-22T02:48:11.438Z,101712.53
2022-08-22T02:50:47.535Z,101721.69
2022-08-22T02:53:21.729Z,101724.00
2022-08-22T02:56:01.873Z,101714.38
2022-08-22T02:58:44.136Z,101715.13
2022-08-22T03:01:29.959Z,101707.16
2022-08-22T03:04:44.503Z,101716.25
2022-08-22T03:07:20.715Z,101717.03
2022-08-22T03:09:59.506Z,101718.28
2022-08-22T03:13:01.713Z,101723.47
2022-08-22T03:15:49.308Z,101718.72
2022-08-22T03:18:39.142Z,101717.84
2022-08-22T03:21:31.135Z,101718.53
2022-08-22T03:24:09.966Z,101710.50
2022-08-22T03:26:42.817Z,101716.44
2022-08-22T03:29:17.313Z,101715.56
2022-08-22T03:32:08.889Z,101708.78
2022-08-22T03:34:36.981Z,101702.00
2022-08-22T03:37:21.045Z,101703.59
2022-08-22T03:40:13.172Z,101711.44
2022-08-22T03:43:09.016Z,101704.66
2022-08-22T03:45:54.876Z,101703.84
2022-08-22T03:49:07.041Z,101695.97
2022-08-22T03:51:58.922Z,101701.06
2022-08-22T03:54:47.988Z,101694.75
2022-08-22T03:57:20.933Z,101697.53
2022-08-22T03:59:57.462Z,101700.72
2022-08-22T04:02:49.382Z,101696.59
2022-08-22T04:05:45.408Z,101708.00
2022-08-22T04:09:14.201Z,101708.41
2022-08-22T04:12:18.328Z,101704.38
2022-08-22T04:15:03.975Z,101709.13
2022-08-22T04:17:31.477Z,101707.09
2022-08-22T04:20:09.407Z,101715.38
2022-08-22T04:22:48.946Z,101707.84
2022-08-22T04:25:23.425Z,101712.97
2022-08-22T04:28:11.247Z,101713.72
2022-08-22T04:30:50.807Z,101718.31
2022-08-22T04:33:49.828Z,101718.25
2022-08-22T04:36:32.543Z,101710.72
2022-08-22T04:39:13.835Z,101714.38
2022-08-22T04:41:48.861Z,101721.16
2022-08-22T04:44:35.888Z,101724.94
2022-08-22T04:47:10.600Z,101719.56
2022-08-22T04:49:40.825Z,101726.53
2022-08-22T04:52:11.048Z,101723.84
2022-08-22T04:54:57.483Z,101728.81
2022-08-22T04:57:38.287Z,101722.16
2022-08-22T05:00:09.146Z,101723.09
2022-08-22T05:02:40.096Z,101731.25
2022-08-22T05:05:13.445Z,101729.28
2022-08-22T05:07:46.567Z,101732.56
2022-08-22T05:10:23.234Z,101744.50
2022-08-22T05:13:04.634Z,101737.81
2022-08-22T05:15:35.935Z,101745.41
2022-08-22T05:18:09.416Z,101735.47
2022-08-22T05:20:39.471Z,101740.81
2022-08-22T05:23:20.217Z,101746.94
2022-08-22T05:25:51.186Z,101742.72
2022-08-22T05:28:32.244Z,101750.47
2022-08-22T05:31:02.756Z,101744.94
2022-08-22T05:33:41.668Z,101752.66
2022-08-22T05:36:13.871Z,101759.91
2022-08-22T05:38:47.533Z,101752.41
2022-08-22T05:41:23.772Z,101754.53
2022-08-22T05:43:51.683Z,101758.63
2022-08-22T05:46:27.086Z,101750.78
2022-08-22T05:49:00.381Z,101765.22
2022-08-22T05:51:37.625Z,101757.34
2022-08-22T05:54:14.084Z,101757.03
2022-08-22T05:57:00.412Z,101759.84
2022-08-22T05:59:32.767Z,101763.16
2022-08-22T06:02:08.592Z,101771.56
2022-08-22T06:04:47.473Z,101767.69
2022-08-22T06:07:33.659Z,101772.50
2022-08-22T06:10:22.892Z,101764.91
2022-08-22T06:13:14.083Z,101765.72
2022-08-22T06:15:44.439Z,101772.56
2022-08-22T06:18:21.031Z,101764.59
2022-08-22T06:20:56.367Z,101772.59
2022-08-22T06:23:49.922Z,101770.22
2022-08-22T06:26:21.166Z,101778.25
2022-08-22T06:28:55.058Z,101775.44
2022-08-22T06:31:29.943Z,101771.88
2022-08-22T06:34:17.707Z,101785.06
2022-08-22T06:36:48.697Z,101783.09
2022-08-22T06:39:31.297Z,101788.69
2022-08-22T06:42:16.688Z,101787.53
2022-08-22T06:45:08.313Z,101793.88
2022-08-22T06:47:41.547Z,101786.72
2022-08-22T06:50:14.835Z,101784.34
2022-08-22T06:52:53.697Z,101780.72
2022-08-22T06:55:22.910Z,101777.13
2022-08-22T06:57:55.609Z,101789.09
2022-08-22T07:00:23.241Z,101784.34
2022-08-22T07:02:57.713Z,101792.75
2022-08-22T07:05:29.461Z,101785.19
2022-08-22T07:07:57.318Z,101783.19
2022-08-22T07:10:25.101Z,101785.19
2022-08-22T07:12:54.487Z,101788.03
2022-08-22T07:15:51.639Z,101787.25
2022-08-22T07:18:21.315Z,101790.47
2022-08-22T07:20:54.978Z,101784.06
2022-08-22T07:23:34.062Z,101779.72
2022-08-22T07:26:13.532Z,101795.69
2022-08-22T07:28:51.650Z,101794.09
2022-08-22T07:31:58.127Z,101788.94
2022-08-22T07:34:25.787Z,101785.81
2022-08-22T07:37:38.835Z,101793.41
2022-08-22T07:40:05.751Z,101784.25
2022-08-22T07:43:26.276Z,101774.34
2022-08-22T07:46:14.914Z,101780.41
2022-08-22T07:49:09.566Z,101770.88
2022-08-22T07:51:47.444Z,101777.34
2022-08-22T07:54:19.673Z,101780.97
2022-08-22T07:57:03.434Z,101772.22
2022-08-22T07:59:33.423Z,101777.47
2022-08-22T08:02:04.883Z,101787.03
2022-08-22T08:04:40.005Z,101783.84
2022-08-22T08:07:10.608Z,101787.41
2022-08-22T08:09:46.664Z,101785.84
2022-08-22T08:12:15.764Z,101780.19
2022-08-22T08:14:45.468Z,101788.19
2022-08-22T08:17:23.938Z,101792.97
2022-08-22T08:19:52.287Z,101792.53
2022-08-22T08:22:25.637Z,101790.91
2022-08-22T08:24:57.264Z,101784.06
2022-08-22T08:27:50.547Z,101787.22
2022-08-22T08:30:40.897Z,101800.00
2022-08-22T08:33:26.152Z,101782.31
2022-08-22T08:36:06.135Z,101791.06
2022-08-22T08:38:45.150Z,101795.78
2022-08-22T08:41:38.667Z,101778.09
2022-08-22T08:44:37.904Z,101782.41
2022-08-22T08:47:42.999Z,101789.53
2022-08-22T08:50:33.147Z,101786.72
2022-08-22T08:52:59.968Z,101786.25
2022-08-22T08:55:36.117Z,101786.53
2022-08-22T08:58:21.569Z,101793.31
2022-08-22T09:01:07.960Z,101792.97
2022-08-22T09:03:51.375Z,101788.19
2022-08-22T09:06:37.363Z,101781.50
2022-08-22T09:09:24.956Z,101785.03
2022-08-22T09:12:17.255Z,101789.94
2022-08-22T09:15:14.348Z,101783.69
2022-08-22T09:17:53.577Z,101777.19
2022-08-22T09:20:39.625Z,101766.81
2022-08-22T09:23:17.022Z,101768.09
2022-08-22T09:25:59.672Z,101763.06
2022-08-22T09:28:46.241Z,101762.72
2022-08-22T09:31:51.479Z,101762.25
2022-08-22T09:34:35.429Z,101763.78
2022-08-22T09:37:32.262Z,101758.69
2022-08-22T09:40:37.843Z,101767.38
2022-08-22T09:43:21.270Z,101770.06
2022-08-22T09:46:07.781Z,101769.13
2022-08-22T09:49:06.913Z,101765.66
2022-08-22T09:51:45.172Z,101761.69
2022-08-22T09:54:31.563Z,101764.91
2022-08-22T09:57:19.112Z,101761.84
2022-08-22T10:00:14.991Z,101766.28
2022-08-22T10:03:07.894Z,101759.75
2022-08-22T10:05:45.507Z,101760.31
2022-08-22T10:08:26.370Z,101768.56
2022-08-22T10:11:14.535Z,101758.09
2022-08-22T10:14:00.806Z,101767.34
2022-08-22T10:16:31.200Z,101760.00
2022-08-22T10:19:20.260Z,101756.38
2022-08-22T10:22:31.663Z,101753.56
2022-08-22T10:25:07.963Z,101758.59
2022-08-22T10:27:56.936Z,101751.09
2022-08-22T10:30:36.613Z,101743.16
2022-08-22T10:33:30.821Z,101746.16
2022-08-22T10:36:05.002Z,101744.47
2022-08-22T10:38:46.502Z,101749.72
2022-08-22T10:41:30.286Z,101750.72
2022-08-22T10:44:26.898Z,101748.50
2022-08-22T10:47:01.194Z,101741.59
2022-08-22T10:49:41.880Z,101743.84
2022-08-22T10:52:15.649Z,101741.75
2022-08-22T10:54:46.071Z,101745.66
2022-08-22T10:57:41.822Z,101745.34
2022-08-22T11:00:46.353Z,101750.00
2022-08-22T11:03:26.452Z,101738.69
2022-08-22T11:05:59.164Z,101737.34
2022-08-22T11:08:45.188Z,101739.03
2022-08-22T11:11:15.191Z,101737.94
2022-08-22T11:13:50.612Z,101734.63
2022-08-22T11:16:36.779Z,101734.88
2022-08-22T11:19:15.632Z,101743.16
2022-08-22T11:21:48.580Z,101728.75
2022-08-22T11:24:55.693Z,101739.28
2022-08-22T11:27:40.105Z,101731.31
2022-08-22T11:30:18.483Z,101723.97
2022-08-22T11:33:18.656Z,101721.78
2022-08-22T11:36:36.742Z,101718.53
2022-08-22T11:39:25.464Z,101720.47
2022-08-22T11:42:15.157Z,101714.56
2022-08-22T11:44:56.537Z,101724.81
2022-08-22T11:47:30.377Z,101726.19
2022-08-22T11:49:58.215Z,101727.63
2022-08-22T11:52:25.542Z,101724.00
2022-08-22T11:55:33.185Z,101722.47
2022-08-22T11:58:05.279Z,101715.50
2022-08-22T12:00:48.712Z,101722.50
2022-08-22T12:03:35.465Z,101722.06
2022-08-22T12:06:21.620Z,101719.25
2022-08-22T12:08:51.284Z,101712.34
2022-08-22T12:11:54.807Z,101711.78
2022-08-22T12:14:31.100Z,101709.19
2022-08-22T12:17:55.526Z,101709.66
2022-08-22T12:20:39.546Z,101713.34
2022-08-22T12:23:49.404Z,101715.19
2022-08-22T12:27:00.053Z,101697.59
2022-08-22T12:29:55.779Z,101692.22
2022-08-22T12:32:56.653Z,101699.75
2022-08-22T12:35:38.845Z,101686.50
2022-08-22T12:38:38.249Z,101688.06
2022-08-22T12:41:28.229Z,101685.03
2022-08-22T12:44:17.440Z,101690.81
2022-08-22T12:47:03.009Z,101687.19
2022-08-22T12:50:02.142Z,101684.69
2022-08-22T12:53:14.973Z,101687.66
2022-08-22T12:56:25.259Z,101675.25
2022-08-22T12:59:20.290Z,101674.78
2022-08-22T13:01:51.484Z,101676.09
2022-08-22T13:04:33.160Z,101670.66
2022-08-22T13:07:08.949Z,101667.56
2022-08-22T13:09:46.268Z,101660.84
2022-08-22T13:12:26.210Z,101669.66
2022-08-22T13:15:21.113Z,101665.47
2022-08-22T13:17:51.902Z,101669.44
2022-08-22T13:20:41.732Z,101671.88
2022-08-22T13:23:20.334Z,101663.69
2022-08-22T13:26:00.063Z,101655.41
2022-08-22T13:28:31.660Z,101659.09
2022-08-22T13:31:01.780Z,101655.09
2022-08-22T13:33:36.862Z,101646.63
2022-08-22T13:36:10.875Z,101641.75
2022-08-22T13:38:50.010Z,101651.75
2022-08-22T13:41:48.698Z,101643.31
2022-08-22T13:44:31.519Z,101646.31
2022-08-22T13:47:14.291Z,101639.88
2022-08-22T13:49:46.978Z,101650.06
2022-08-22T13:52:32.993Z,101638.31
2022-08-22T13:55:19.934Z,101642.97
2022-08-22T13:57:51.977Z,101636.97
2022-08-22T14:00:28.825Z,101645.03
2022-08-22T14:03:08.003Z,101639.59
2022-08-22T14:05:47.804Z,101636.41
2022-08-22T14:08:28.820Z,101634.50
2022-08-22T14:11:02.157Z,101638.56
2022-08-22T14:13:36.811Z,101631.31
2022-08-22T14:16:10.390Z,101630.84
2022-08-22T14:18:50.867Z,101630.78
2022-08-22T14:21:45.547Z,101633.44
2022-08-22T14:24:18.818Z,101619.25
2022-08-22T14:26:57.972Z,101620.25
2022-08-22T14:29:29.167Z,101617.16
2022-08-22T14:32:12.699Z,101621.56
2022-08-22T14:34:45.393Z,101621.34
2022-08-22T14:37:24.201Z,101621.47
2022-08-22T14:39:58.214Z,101607.88
2022-08-22T14:42:30.394Z,101608.00
2022-08-22T14:45:08.731Z,101610.22
2022-08-22T14:48:14.194Z,101618.78
2022-08-22T14:50:58.847Z,101623.75
2022-08-22T14:53:30.202Z,101608.38
2022-08-22T14:56:15.426Z,101607.69
2022-08-22T14:58:58.200Z,101599.03
2022-08-22T15:01:29.956Z,101603.66
2022-08-22T15:04:07.955Z,101598.81
2022-08-22T15:06:58.590Z,101592.13
2022-08-22T15:09:31.580Z,101594.53
2022-08-22T15:12:01.567Z,101592.78
2022-08-22T15:14:51.887Z,101592.78
2022-08-22T15:17:37.759Z,101583.72
2022-08-22T15:20:38.237Z,101581.19
2022-08-22T15:23:22.023Z,101572.00
2022-08-22T15:26:17.005Z,101568.16
2022-08-22T15:28:52.664Z,101559.75
2022-08-22T15:31:21.459Z,101568.75
2022-08-22T15:33:49.443Z,101569.44
2022-08-22T15:36:26.985Z,101576.81
2022-08-22T15:39:31.010Z,101571.22
2022-08-22T15:41:59.867Z,101568.72
2022-08-22T15:44:34.876Z,101562.75
2022-08-22T15:47:09.553Z,101568.34
2022-08-22T15:50:05.405Z,101572.50
2022-08-22T15:52:59.751Z,101571.69
2022-08-22T15:55:34.314Z,101560.94
2022-08-22T15:58:20.704Z,101566.53
2022-08-22T16:01:18.944Z,101562.25
2022-08-22T16:04:14.466Z,101564.53
2022-08-22T16:06:55.393Z,101563.22
2022-08-22T16:09:43.482Z,101553.03
2022-08-22T16:12:34.356Z,101554.06
2022-08-22T16:15:05.835Z,101551.63
2022-08-22T16:17:43.643Z,101554.66
2022-08-22T16:20:19.698Z,101552.06
2022-08-22T16:22:59.254Z,101556.03
2022-08-22T16:25:50.275Z,101551.75
2022-08-22T16:28:56.991Z,101543.75
2022-08-22T16:31:23.931Z,101543.88
2022-08-22T16:33:51.540Z,101543.63
2022-08-22T16:36:37.077Z,101544.00
2022-08-22T16:39:12.661Z,101537.69
2022-08-22T16:41:43.780Z,101535.94
2022-08-22T16:44:23.658Z,101541.41
2022-08-22T16:46:52.992Z,101539.34
2022-08-22T16:49:31.437Z,101542.06
2022-08-22T16:52:26.317Z,101540.34
2022-08-22T16:55:04.994Z,101529.19
2022-08-22T16:57:59.390Z,101528.91
2022-08-22T17:00:31.617Z,101526.06
2022-08-22T17:03:27.318Z,101529.88
2022-08-22T17:06:13.007Z,101531.16
2022-08-22T17:09:17.595Z,101528.75
2022-08-22T17:12:23.660Z,101530.28
2022-08-22T17:15:11.088Z,101527.19
2022-08-22T17:17:53.116Z,101527.50
2022-08-22T17:20:47.984Z,101528.97
2022-08-22T17:23:30.004Z,101532.31
2022-08-22T17:26:12.042Z,101533.09
2022-08-22T17:28:54.647Z,101530.59
2022-08-22T17:31:27.819Z,101531.13
2022-08-22T17:34:32.947Z,101531.34
2022-08-22T17:37:24.143Z,101530.59
2022-08-22T17:40:00.344Z,101531.25
2022-08-22T17:42:51.873Z,101533.66
2022-08-22T17:45:45.722Z,101534.63
2022-08-22T17:48:26.720Z,101533.84
2022-08-22T17:51:28.323Z,101542.09
2022-08-22T17:54:14.423Z,101539.00
2022-08-22T17:56:45.390Z,101543.28
2022-08-22T17:59:21.408Z,101543.97
2022-08-22T18:01:56.170Z,101544.13
2022-08-22T18:04:59.138Z,101538.72
2022-08-22T18:07:45.168Z,101545.41
2022-08-22T18:10:19.671Z,101534.09
2022-08-22T18:12:51.895Z,101541.97
2022-08-22T18:15:34.280Z,101547.06
2022-08-22T18:18:11.739Z,101553.31
2022-08-22T18:21:10.611Z,101555.16
2022-08-22T18:23:44.860Z,101551.28
2022-08-22T18:26:36.423Z,101556.28
2022-08-22T18:29:21.482Z,101539.91
2022-08-22T18:32:00.477Z,101545.22
2022-08-22T18:35:13.143Z,101545.84
2022-08-22T18:37:58.036Z,101540.00
2022-08-22T18:40:37.763Z,101541.78
2022-08-22T18:43:28.356Z,101543.13
2022-08-22T18:46:02.960Z,101545.25
2022-08-22T18:48:30.351Z,101543.72
2022-08-22T18:51:24.451Z,101541.03
2022-08-22T18:54:03.889Z,101550.34
2022-08-22T18:56:31.540Z,101550.47
2022-08-22T18:59:06.106Z,101549.75
2022-08-22T19:02:05.612Z,101544.63
2022-08-22T19:04:41.731Z,101547.88
2022-08-22T19:07:36.156Z,101560.00
2022-08-22T19:10:05.801Z,101560.41
2022-08-22T19:13:02.913Z,101563.31
2022-08-22T19:15:45.041Z,101568.97
2022-08-22T19:18:49.491Z,101568.69
2022-08-22T19:21:39.955Z,101567.09
2022-08-22T19:24:27.289Z,101566.75
2022-08-22T19:27:20.199Z,101569.56
2022-08-22T19:29:47.241Z,101570.84
2022-08-22T19:32:46.102Z,101570.09
2022-08-22T19:35:20.523Z,101576.53
2022-08-22T19:38:02.595Z,101565.81
2022-08-22T19:40:44.761Z,101572.25
2022-08-22T19:43:42.353Z,101567.91
2022-08-22T19:46:13.201Z,101569.94
2022-08-22T19:48:50.043Z,101572.38
2022-08-22T19:51:19.723Z,101569.59
2022-08-22T19:53:56.954Z,101576.47
2022-08-22T19:56:45.868Z,101571.66
2022-08-22T19:59:20.083Z,101567.28
2022-08-22T20:01:49.842Z,101573.34
2022-08-22T20:04:35.375Z,101574.16
2022-08-22T20:07:34.019Z,101570.19
2022-08-22T20:10:39.674Z,101575.41
2022-08-22T20:13:19.532Z,101569.44
2022-08-22T20:16:43.124Z,101567.88
2022-08-22T20:19:10.214Z,101563.91
2022-08-22T20:21:46.447Z,101559.88
2022-08-22T20:24:29.611Z,101561.94
2022-08-22T20:27:15.629Z,101565.19
2022-08-22T20:29:49.392Z,101565.19
2022-08-22T20:32:19.567Z,101556.81
2022-08-22T20:34:50.656Z,101560.81
2022-08-22T20:37:56.179Z,101560.88
2022-08-22T20:40:55.262Z,101560.47
2022-08-22T20:43:35.724Z,101558.13
2022-08-22T20:46:12.779Z,101550.53
2022-08-22T20:48:43.854Z,101546.56
2022-08-22T20:51:16.110Z,101550.53
2022-08-22T20:53:51.514Z,101553.75
2022-08-22T20:56:48.838Z,101549.75
2022-08-22T20:59:29.895Z,101554.56
2022-08-22T21:02:35.579Z,101548.97
2022-08-22T21:05:06.766Z,101544.19
2022-08-22T21:07:35.425Z,101546.19
2022-08-22T21:10:44.709Z,101547.41
2022-08-22T21:13:28.481Z,101541.84
2022-08-22T21:15:58.092Z,101534.25
2022-08-22T21:18:41.131Z,101540.28
2022-08-22T21:21:18.140Z,101541.84
2022-08-22T21:23:56.412Z,101536.25
2022-08-22T21:26:32.620Z,101542.28
2022-08-22T21:29:14.849Z,101541.09
2022-08-22T21:31:46.001Z,101541.88
2022-08-22T21:34:19.584Z,101544.28
2022-08-22T21:36:48.336Z,101535.50
2022-08-22T21:39:25.035Z,101535.13
2022-08-22T21:42:15.649Z,101534.72
2022-08-22T21:44:54.144Z,101537.50
2022-08-22T21:47:32.764Z,101528.75
2022-08-22T21:49:59.560Z,101526.75
2022-08-22T21:52:36.222Z,101525.94
2022-08-22T21:55:21.803Z,101535.56
2022-08-22T21:58:12.762Z,101532.34
2022-08-22T22:01:02.462Z,101534.38
2022-08-22T22:03:38.362Z,101531.59
2022-08-22T22:06:06.754Z,101538.75
2022-08-22T22:08:33.765Z,101531.59
2022-08-22T22:11:08.423Z,101531.59
2022-08-22T22:13:35.746Z,101533.97
2022-08-22T22:16:03.118Z,101533.19
2022-08-22T22:18:31.618Z,101530.78
2022-08-22T22:20:58.709Z,101526.44
2022-08-22T22:23:26.295Z,101531.59
2022-08-22T22:25:55.793Z,101528.81
2022-08-22T22:28:32.668Z,101534.44
2022-08-22T22:30:59.671Z,101530.84
2022-08-22T22:33:29.792Z,101525.66
2022-08-22T22:36:01.252Z,101527.63
2022-08-22T22:38:28.223Z,101528.44
2022-08-22T22:40:55.120Z,101522.03
2022-08-22T22:43:22.194Z,101518.84
2022-08-22T22:45:49.215Z,101518.09
2022-08-22T22:48:22.271Z,101522.06
2022-08-22T22:50:52.789Z,101522.06
2022-08-22T22:53:25.833Z,101527.28
2022-08-22T22:56:09.320Z,101526.88
2022-08-22T22:58:37.665Z,101524.09
2022-08-22T23:01:18.371Z,101527.69
2022-08-22T23:03:45.442Z,101525.69
2022-08-22T23:06:14.401Z,101528.47
2022-08-22T23:08:41.519Z,101520.50
2022-08-22T23:11:11.414Z,101526.47
2022-08-22T23:13:39.564Z,101527.66
2022-08-22T23:16:09.392Z,101522.88
2022-08-22T23:18:36.425Z,101523.69
2022-08-22T23:21:30.520Z,101522.06
2022-08-22T23:23:59.379Z,101523.28
2022-08-22T23:26:27.155Z,101520.88
2022-08-22T23:28:54.227Z,101520.06
2022-08-22T23:31:37.686Z,101525.69
2022-08-22T23:34:17.639Z,101526.47
2022-08-22T23:36:47.552Z,101521.69
2022-08-22T23:39:16.351Z,101513.28
2022-08-22T23:41:46.454Z,101523.25
2022-08-22T23:44:15.900Z,101516.44
2022-08-22T23:46:44.025Z,101517.22
2022-08-22T23:49:11.943Z,101523.22
2022-08-22T23:51:39.603Z,101514.44
2022-08-22T23:54:07.089Z,101515.63
2022-08-22T23:56:39.949Z,101508.41
2022-08-22T23:59:09.981Z,101506.03
